Time;durP1;ratioP1;P1;durP2;ratioP2;P2;SDS_P1;SDS_P2;PMS_P1;PMS_P2;Temp;Humidity;BMP_temperature;BMP_pressure;BME280_temperature;BME280_humidity;BME280_pressure;Samples;Min_cycle;Max_cycle;Signal;HPM_P1;HPM_P2
2022/01/23 00:01:11;;;;;;;10.43;6.32;;;;;;;;;;5036093;28;20041;-59
2022/01/23 00:03:44;;;;;;;15.13;7.88;;;;;;;;;;5042456;28;20064;-52
2022/01/23 00:06:10;;;;;;;12.75;6.95;;;;;;;;;;5040999;28;20577;-55
2022/01/23 00:08:36;;;;;;;12.02;7.57;;;;;;;;;;5040501;28;20116;-57
2022/01/23 00:11:01;;;;;;;14.65;7.50;;;;;;;;;;5042193;28;20493;-59
2022/01/23 00:13:35;;;;;;;10.80;7.13;;;;;;;;;;5040404;28;20120;-59
2022/01/23 00:18:44;;;;;;;13.77;7.63;;;;;;;;;;5037104;28;20055;-57
2022/01/23 00:21:10;;;;;;;12.38;7.68;;;;;;;;;;5043789;28;20049;-56
2022/01/23 00:31:37;;;;;;;14.57;6.85;;;;;;;;;;5036371;28;20047;-59
2022/01/23 00:34:03;;;;;;;11.82;7.22;;;;;;;;;;5020013;28;20041;-58
2022/01/23 00:36:29;;;;;;;10.07;7.22;;;;;;;;;;5020814;28;20037;-56
2022/01/23 00:38:56;;;;;;;12.52;7.75;;;;;;;;;;5020934;28;20108;-57
2022/01/23 00:41:22;;;;;;;15.30;8.63;;;;;;;;;;5022004;28;20382;-57
2022/01/23 00:43:49;;;;;;;13.65;8.05;;;;;;;;;;5024332;28;20537;-58
2022/01/23 00:51:26;;;;;;;12.40;8.00;;;;;;;;;;5018499;28;20116;-60
2022/01/23 00:53:54;;;;;;;14.02;8.13;;;;;;;;;;5020907;28;20022;-57
2022/01/23 00:56:19;;;;;;;12.88;7.93;;;;;;;;;;5024558;28;20028;-59
2022/01/23 00:58:46;;;;;;;11.15;7.80;;;;;;;;;;5025645;28;20025;-59
2022/01/23 01:01:12;;;;;;;16.92;8.35;;;;;;;;;;5024886;28;20366;-57
2022/01/23 01:03:38;;;;;;;13.73;8.38;;;;;;;;;;5022521;28;20030;-56
2022/01/23 01:06:04;;;;;;;11.98;8.20;;;;;;;;;;5018840;28;20038;-59
2022/01/23 01:08:30;;;;;;;11.48;8.00;;;;;;;;;;5025664;28;20044;-59
2022/01/23 01:32:53;;;;;;;15.15;8.18;;;;;;;;;;5025440;28;20040;-58
2022/01/23 01:37:48;;;;;;;11.88;8.05;;;;;;;;;;5024274;28;20087;-58
2022/01/23 01:40:14;;;;;;;14.18;7.85;;;;;;;;;;5020487;28;20424;-59
2022/01/23 01:42:40;;;;;;;13.50;8.07;;;;;;;;;;5020771;28;20574;-59
2022/01/23 01:45:06;;;;;;;13.02;8.57;;;;;;;;;;5025627;28;20129;-59
2022/01/23 01:47:32;;;;;;;13.98;7.72;;;;;;;;;;5028995;28;20044;-60
2022/01/23 01:49:57;;;;;;;17.88;8.65;;;;;;;;;;5025892;28;20378;-56
2022/01/23 01:52:24;;;;;;;14.80;8.20;;;;;;;;;;5019822;28;20029;-56
2022/01/23 01:54:58;;;;;;;11.38;7.63;;;;;;;;;;5023336;28;20363;-58
2022/01/23 01:57:29;;;;;;;16.35;8.00;;;;;;;;;;5019590;28;20033;-58
2022/01/23 02:10:50;;;;;;;13.07;7.95;;;;;;;;;;5020621;28;20030;-57
2022/01/23 02:13:21;;;;;;;12.30;7.40;;;;;;;;;;5023781;28;20042;-57
2022/01/23 02:16:34;;;;;;;12.32;7.53;;;;;;;;;;5019884;28;20076;-60
2022/01/23 02:51:48;;;;;;;12.60;8.40;;;;;;;;;;5022438;28;20057;-59
2022/01/23 02:56:48;;;;;;;13.80;7.70;;;;;;;;;;5021863;28;20145;-59
2022/01/23 02:59:37;;;;;;;12.10;7.25;;;;;;;;;;5019809;28;20411;-57
2022/01/23 03:02:47;;;;;;;11.68;7.60;;;;;;;;;;5020419;28;20524;-59
2022/01/23 03:04:52;;;;;;;9.77;6.80;;;;;;;;;;5020117;28;20537;-59
2022/01/23 03:10:11;;;;;;;10.70;7.55;;;;;;;;;;5018243;28;20040;-58
2022/01/23 03:28:59;;;;;;;15.57;8.95;;;;;;;;;;5016603;28;20026;-57
2022/01/23 03:31:27;;;;;;;12.38;9.02;;;;;;;;;;5021867;28;20033;-59
2022/01/23 03:33:53;;;;;;;16.13;9.60;;;;;;;;;;5025105;28;21057;-58
2022/01/23 03:36:19;;;;;;;14.77;9.68;;;;;;;;;;5025051;28;20078;-58
2022/01/23 03:38:46;;;;;;;17.70;10.73;;;;;;;;;;5025917;28;20465;-59
2022/01/23 03:41:12;;;;;;;16.05;10.18;;;;;;;;;;5017652;28;21624;-59
2022/01/23 03:43:39;;;;;;;18.50;10.30;;;;;;;;;;5013962;28;20040;-58
2022/01/23 03:51:21;;;;;;;18.13;11.48;;;;;;;;;;5024407;28;20561;-56
2022/01/23 03:53:47;;;;;;;18.65;11.20;;;;;;;;;;5020138;28;20124;-59
2022/01/23 03:56:18;;;;;;;19.13;11.48;;;;;;;;;;5016349;28;20018;-59
2022/01/23 03:58:44;;;;;;;17.42;10.45;;;;;;;;;;5024179;28;20462;-59
2022/01/23 04:01:10;;;;;;;16.90;9.73;;;;;;;;;;5021518;28;20124;-57
2022/01/23 04:03:38;;;;;;;18.92;11.15;;;;;;;;;;5021887;28;20026;-59
2022/01/23 04:06:03;;;;;;;19.85;11.73;;;;;;;;;;5018850;28;20034;-57
2022/01/23 04:08:29;;;;;;;12.73;8.65;;;;;;;;;;5021486;28;20032;-58
2022/01/23 04:10:55;;;;;;;11.95;7.95;;;;;;;;;;5020393;28;20113;-59
2022/01/23 04:13:39;;;;;;;14.80;8.68;;;;;;;;;;5023249;28;20033;-59
2022/01/23 04:31:38;;;;;;;15.57;8.07;;;;;;;;;;5022073;28;20654;-59
2022/01/23 04:47:02;;;;;;;21.80;13.55;;;;;;;;;;5017245;28;20038;-59
2022/01/23 05:00:09;;;;;;;14.43;10.57;;;;;;;;;;4970033;28;20050;-57
2022/01/23 05:05:26;;;;;;;13.68;7.20;;;;;;;;;;4968717;28;20435;-58
2022/01/23 05:07:52;;;;;;;11.93;8.43;;;;;;;;;;4962581;28;20054;-56
2022/01/23 05:10:18;;;;;;;15.77;10.27;;;;;;;;;;4969770;28;20109;-57
2022/01/23 05:12:44;;;;;;;14.50;8.88;;;;;;;;;;4967875;28;20393;-56
2022/01/23 05:15:11;;;;;;;15.93;8.10;;;;;;;;;;4967656;28;20085;-56
2022/01/23 05:17:37;;;;;;;13.15;8.57;;;;;;;;;;4968950;28;20043;-57
2022/01/23 05:20:04;;;;;;;12.93;8.63;;;;;;;;;;4969154;28;20054;-56
2022/01/23 05:22:42;;;;;;;11.07;7.65;;;;;;;;;;4964190;28;20046;-58
2022/01/23 05:27:43;;;;;;;13.40;7.70;;;;;;;;;;4970605;28;20542;-56
2022/01/23 05:30:09;;;;;;;11.30;7.60;;;;;;;;;;5007659;28;20049;-56
2022/01/23 05:32:40;;;;;;;12.05;8.40;;;;;;;;;;5023944;28;20038;-57
2022/01/23 05:35:07;;;;;;;11.25;8.10;;;;;;;;;;5022689;28;20056;-53
2022/01/23 05:37:33;;;;;;;11.60;7.25;;;;;;;;;;5020679;28;20038;-58
2022/01/23 05:39:59;;;;;;;11.52;7.70;;;;;;;;;;5022633;28;20487;-55
2022/01/23 05:42:25;;;;;;;12.32;8.10;;;;;;;;;;5023997;28;20034;-57
2022/01/23 05:44:51;;;;;;;14.43;8.05;;;;;;;;;;5027610;28;20042;-54
2022/01/23 05:47:17;;;;;;;11.52;7.53;;;;;;;;;;5022970;28;20044;-59
2022/01/23 05:49:43;;;;;;;12.70;8.35;;;;;;;;;;5021389;28;20040;-57
2022/01/23 05:52:09;;;;;;;13.20;8.18;;;;;;;;;;5021978;28;20038;-55
2022/01/23 05:54:35;;;;;;;14.77;7.90;;;;;;;;;;5027772;28;20033;-58
2022/01/23 05:57:02;;;;;;;14.10;8.00;;;;;;;;;;5024090;28;20064;-56
2022/01/23 05:59:28;;;;;;;11.68;7.53;;;;;;;;;;5023945;28;20076;-58
2022/01/23 06:01:55;;;;;;;10.80;7.32;;;;;;;;;;5026057;28;20053;-59
2022/01/23 06:04:25;;;;;;;13.13;7.22;;;;;;;;;;5026066;28;20052;-54
2022/01/23 06:06:53;;;;;;;12.52;7.50;;;;;;;;;;5021263;28;20041;-59
2022/01/23 06:09:20;;;;;;;11.07;6.55;;;;;;;;;;5024774;28;20043;-57
2022/01/23 06:11:47;;;;;;;10.43;7.57;;;;;;;;;;5027293;28;20500;-55
2022/01/23 06:14:12;;;;;;;11.75;7.50;;;;;;;;;;5023287;28;20458;-57
2022/01/23 06:16:38;;;;;;;12.52;8.18;;;;;;;;;;5027243;28;20037;-53
2022/01/23 06:19:05;;;;;;;14.50;8.52;;;;;;;;;;5024269;28;20068;-55
2022/01/23 06:21:31;;;;;;;11.75;7.88;;;;;;;;;;5017972;28;20056;-57
2022/01/23 06:24:09;;;;;;;16.75;7.97;;;;;;;;;;5025355;28;20051;-57
2022/01/23 06:26:46;;;;;;;9.95;7.63;;;;;;;;;;5021746;28;20048;-59
2022/01/23 06:29:14;;;;;;;9.52;7.07;;;;;;;;;;5026650;28;20902;-58
2022/01/23 06:31:42;;;;;;;10.50;7.10;;;;;;;;;;5021574;28;20459;-57
2022/01/23 06:34:09;;;;;;;11.02;6.93;;;;;;;;;;5023060;28;20037;-58
2022/01/23 06:36:35;;;;;;;9.70;6.93;;;;;;;;;;5022260;28;20112;-55
2022/01/23 06:39:04;;;;;;;12.55;6.95;;;;;;;;;;5023152;28;20079;-57
2022/01/23 06:41:29;;;;;;;13.30;7.82;;;;;;;;;;5021071;28;20046;-59
2022/01/23 06:43:55;;;;;;;12.48;6.93;;;;;;;;;;5021360;28;20034;-57
2022/01/23 06:46:21;;;;;;;9.68;7.50;;;;;;;;;;5020154;28;20033;-58
2022/01/23 06:48:47;;;;;;;9.18;7.20;;;;;;;;;;5020933;28;20457;-58
2022/01/23 06:51:13;;;;;;;11.00;6.68;;;;;;;;;;5025707;28;20038;-58
2022/01/23 06:53:38;;;;;;;10.45;6.93;;;;;;;;;;5018784;28;20068;-58
2022/01/23 06:56:04;;;;;;;12.20;6.72;;;;;;;;;;5023805;28;20140;-57
2022/01/23 06:58:30;;;;;;;16.63;7.65;;;;;;;;;;5015468;28;20053;-58
2022/01/23 07:00:56;;;;;;;27.15;9.57;;;;;;;;;;5021282;28;20104;-57
2022/01/23 07:03:21;;;;;;;12.63;7.60;;;;;;;;;;5017010;28;20152;-58
2022/01/23 07:05:47;;;;;;;11.40;7.63;;;;;;;;;;5019730;28;20616;-56
2022/01/23 07:08:13;;;;;;;11.45;7.55;;;;;;;;;;5025537;28;20018;-57
2022/01/23 07:10:39;;;;;;;12.50;7.88;;;;;;;;;;5021153;28;20087;-56
2022/01/23 07:13:04;;;;;;;5.55;4.35;;;;;;;;;;5018317;28;20045;-57
2022/01/23 07:15:30;;;;;;;8.18;4.68;;;;;;;;;;5018015;28;20652;-59
2022/01/23 07:17:56;;;;;;;24.30;12.85;;;;;;;;;;5027057;28;20450;-57
2022/01/23 07:20:21;;;;;;;40.78;19.70;;;;;;;;;;5021923;28;20057;-59
2022/01/23 07:22:47;;;;;;;50.10;26.63;;;;;;;;;;5020598;28;20037;-58
2022/01/23 07:25:13;;;;;;;33.20;19.30;;;;;;;;;;5022572;28;20589;-56
2022/01/23 07:27:59;;;;;;;26.77;15.48;;;;;;;;;;5016967;28;20113;-58
2022/01/23 07:30:36;;;;;;;26.35;14.82;;;;;;;;;;5027256;28;20033;-57
2022/01/23 07:33:03;;;;;;;23.00;13.25;;;;;;;;;;5021553;28;20029;-58
2022/01/23 07:35:29;;;;;;;28.92;13.98;;;;;;;;;;5019569;28;20433;-55
2022/01/23 07:37:54;;;;;;;29.42;16.65;;;;;;;;;;5017419;28;20030;-57
2022/01/23 07:40:20;;;;;;;25.58;15.68;;;;;;;;;;5026337;28;20545;-59
2022/01/23 07:42:46;;;;;;;27.33;15.25;;;;;;;;;;5023708;28;20043;-59
2022/01/23 07:45:12;;;;;;;23.48;14.30;;;;;;;;;;5026691;28;20038;-57
2022/01/23 07:47:38;;;;;;;31.08;15.93;;;;;;;;;;5023675;28;20025;-59
2022/01/23 07:50:07;;;;;;;32.25;19.13;;;;;;;;;;5018701;28;20038;-59
2022/01/23 07:52:35;;;;;;;25.95;17.20;;;;;;;;;;5022615;28;20454;-56
2022/01/23 07:55:07;;;;;;;27.13;16.95;;;;;;;;;;5020288;28;20127;-58
2022/01/23 07:57:33;;;;;;;28.10;18.20;;;;;;;;;;5019055;28;20037;-59
2022/01/23 07:59:59;;;;;;;30.92;16.80;;;;;;;;;;5024037;28;20052;-55
2022/01/23 08:02:25;;;;;;;22.75;16.02;;;;;;;;;;5021231;28;20041;-57
2022/01/23 08:04:50;;;;;;;29.15;16.40;;;;;;;;;;5022434;28;20057;-57
2022/01/23 08:07:30;;;;;;;22.67;14.57;;;;;;;;;;5023347;28;20061;-58
2022/01/23 08:10:02;;;;;;;25.08;17.30;;;;;;;;;;5023486;28;20091;-55
2022/01/23 08:12:31;;;;;;;27.13;16.60;;;;;;;;;;5015783;28;20026;-56
2022/01/23 08:14:59;;;;;;;20.75;15.63;;;;;;;;;;5024674;28;20112;-57
2022/01/23 08:17:25;;;;;;;22.02;15.43;;;;;;;;;;5022982;28;20437;-59
2022/01/23 08:19:55;;;;;;;18.08;11.88;;;;;;;;;;5020982;28;20103;-55
2022/01/23 08:22:25;;;;;;;14.48;10.45;;;;;;;;;;5020434;28;20057;-59
2022/01/23 08:24:51;;;;;;;15.48;10.57;;;;;;;;;;5017307;28;26194;-57
2022/01/23 08:27:19;;;;;;;17.33;11.73;;;;;;;;;;5020010;28;20033;-58
2022/01/23 08:29:45;;;;;;;17.65;12.43;;;;;;;;;;5014662;28;20116;-59
2022/01/23 08:32:11;;;;;;;20.15;12.55;;;;;;;;;;5016902;28;20040;-58
2022/01/23 08:34:37;;;;;;;26.00;13.25;;;;;;;;;;5019924;28;20025;-55
2022/01/23 08:37:07;;;;;;;24.30;13.32;;;;;;;;;;5016730;28;20482;-58
2022/01/23 08:39:36;;;;;;;22.52;13.27;;;;;;;;;;5021589;28;20029;-56
2022/01/23 08:42:08;;;;;;;24.02;13.27;;;;;;;;;;5018863;28;20038;-58
2022/01/23 08:44:34;;;;;;;25.08;14.35;;;;;;;;;;5017743;28;20037;-58
2022/01/23 08:47:00;;;;;;;25.00;15.88;;;;;;;;;;5018901;28;20057;-59
2022/01/23 08:49:28;;;;;;;23.38;14.85;;;;;;;;;;5021629;28;20414;-54
2022/01/23 08:51:55;;;;;;;22.67;15.10;;;;;;;;;;5019850;28;20044;-58
2022/01/23 08:54:22;;;;;;;21.10;15.00;;;;;;;;;;5025752;28;20047;-54
2022/01/23 08:56:47;;;;;;;22.42;14.52;;;;;;;;;;5020869;28;20064;-57
2022/01/23 08:59:13;;;;;;;20.77;13.77;;;;;;;;;;5022230;28;20060;-58
2022/01/23 09:01:39;;;;;;;16.88;10.93;;;;;;;;;;5019582;28;20036;-60
2022/01/23 09:04:06;;;;;;;14.07;9.57;;;;;;;;;;5019744;28;20037;-59
2022/01/23 09:06:31;;;;;;;13.10;8.10;;;;;;;;;;5024399;28;20041;-58
2022/01/23 09:09:03;;;;;;;11.38;8.35;;;;;;;;;;5023893;28;20766;-58
2022/01/23 09:14:07;;;;;;;10.90;7.97;;;;;;;;;;5023656;28;20029;-59
2022/01/23 09:16:43;;;;;;;11.57;7.55;;;;;;;;;;5018127;28;22781;-59
2022/01/23 09:19:10;;;;;;;12.00;6.45;;;;;;;;;;5023279;28;20167;-58
2022/01/23 09:21:37;;;;;;;11.00;6.60;;;;;;;;;;5018649;28;20029;-60
2022/01/23 09:24:05;;;;;;;8.13;5.93;;;;;;;;;;5023232;28;20029;-57
2022/01/23 09:26:31;;;;;;;16.58;9.57;;;;;;;;;;5021634;28;20041;-58
2022/01/23 09:29:00;;;;;;;19.45;12.13;;;;;;;;;;5024123;28;20025;-59
2022/01/23 09:33:53;;;;;;;16.77;11.27;;;;;;;;;;5019796;28;20033;-59
2022/01/23 09:36:19;;;;;;;19.08;11.10;;;;;;;;;;5022537;28;20033;-59
2022/01/23 09:38:44;;;;;;;17.80;11.30;;;;;;;;;;5018894;28;20089;-58
2022/01/23 09:41:14;;;;;;;13.07;10.27;;;;;;;;;;5026146;28;20037;-60
2022/01/23 09:43:42;;;;;;;20.02;11.52;;;;;;;;;;5022711;28;20032;-60
2022/01/23 09:46:08;;;;;;;22.73;13.30;;;;;;;;;;5023992;28;20087;-60
2022/01/23 09:48:35;;;;;;;22.25;13.88;;;;;;;;;;5027908;28;20029;-59
2022/01/23 09:51:01;;;;;;;20.55;15.07;;;;;;;;;;5026209;28;20044;-59
2022/01/23 09:53:28;;;;;;;23.77;15.57;;;;;;;;;;5019706;28;20034;-59
2022/01/23 09:55:59;;;;;;;25.92;16.38;;;;;;;;;;5023433;28;20498;-59
2022/01/23 09:58:25;;;;;;;30.13;18.17;;;;;;;;;;5020971;28;20112;-59
2022/01/23 10:00:51;;;;;;;29.25;18.13;;;;;;;;;;5024137;28;20041;-59
2022/01/23 10:03:19;;;;;;;28.02;18.48;;;;;;;;;;5021927;28;20065;-58
2022/01/23 10:05:49;;;;;;;30.58;19.42;;;;;;;;;;5020516;28;20057;-59
2022/01/23 10:08:17;;;;;;;32.25;19.73;;;;;;;;;;5019332;28;20489;-60
2022/01/23 10:10:49;;;;;;;25.63;17.23;;;;;;;;;;5020471;28;20434;-59
2022/01/23 10:13:16;;;;;;;25.05;17.17;;;;;;;;;;5021680;28;20045;-60
2022/01/23 10:15:41;;;;;;;27.90;16.17;;;;;;;;;;5021962;28;20474;-56
2022/01/23 10:18:07;;;;;;;26.65;16.65;;;;;;;;;;5020910;28;20076;-59
2022/01/23 10:20:33;;;;;;;22.48;16.00;;;;;;;;;;5023860;28;20112;-58
2022/01/23 10:22:59;;;;;;;31.52;19.50;;;;;;;;;;5020788;28;20573;-59
2022/01/23 10:25:30;;;;;;;27.40;19.60;;;;;;;;;;5023741;28;20045;-59
2022/01/23 10:28:03;;;;;;;28.58;18.85;;;;;;;;;;5018790;28;20055;-58
2022/01/23 10:30:46;;;;;;;31.50;19.15;;;;;;;;;;5024464;28;20042;-59
2022/01/23 10:33:25;;;;;;;25.50;17.98;;;;;;;;;;5018860;28;20038;-60
2022/01/23 10:36:10;;;;;;;36.45;18.52;;;;;;;;;;5026325;28;20410;-57
2022/01/23 10:38:36;;;;;;;23.48;16.60;;;;;;;;;;5024278;28;20057;-60
2022/01/23 10:50:07;;;;;;;28.50;17.45;;;;;;;;;;5022817;28;20367;-58
2022/01/23 10:52:43;;;;;;;25.00;16.27;;;;;;;;;;5023360;28;20030;-57
2022/01/23 10:55:12;;;;;;;28.65;16.65;;;;;;;;;;5019952;28;20404;-59
2022/01/23 10:57:40;;;;;;;27.15;15.80;;;;;;;;;;5023853;28;20033;-60
2022/01/23 11:00:20;;;;;;;22.30;14.43;;;;;;;;;;5022961;28;20824;-59
2022/01/23 11:02:47;;;;;;;23.60;14.82;;;;;;;;;;5022372;28;20688;-60
2022/01/23 11:05:14;;;;;;;22.65;14.45;;;;;;;;;;5025164;28;20037;-59
2022/01/23 11:07:42;;;;;;;25.52;13.60;;;;;;;;;;5022680;28;20034;-60
2022/01/23 11:10:12;;;;;;;21.33;14.27;;;;;;;;;;5021039;28;20091;-58
2022/01/23 11:18:16;;;;;;;22.15;15.40;;;;;;;;;;5028500;28;20033;-58
2022/01/23 11:20:47;;;;;;;24.17;16.23;;;;;;;;;;5022080;28;20155;-60
2022/01/23 11:23:17;;;;;;;22.52;15.20;;;;;;;;;;5020862;28;20635;-59
2022/01/23 11:26:07;;;;;;;21.83;14.70;;;;;;;;;;5022377;28;20033;-58
2022/01/23 11:28:37;;;;;;;19.95;14.48;;;;;;;;;;5019532;28;20124;-60
2022/01/23 11:31:09;;;;;;;19.05;13.48;;;;;;;;;;5019805;28;20029;-59
2022/01/23 11:33:35;;;;;;;22.27;13.63;;;;;;;;;;5017097;28;20390;-59
2022/01/23 11:36:02;;;;;;;20.02;14.00;;;;;;;;;;5022771;28;20041;-60
2022/01/23 11:38:28;;;;;;;24.25;12.77;;;;;;;;;;5026252;28;20053;-60
2022/01/23 11:55:08;;;;;;;21.67;13.70;;;;;;;;;;4946077;28;20458;-60
2022/01/23 11:57:34;;;;;;;19.52;13.70;;;;;;;;;;4948559;28;20039;-59
2022/01/23 12:00:07;;;;;;;19.10;13.70;;;;;;;;;;4946920;28;20057;-60
2022/01/23 12:02:38;;;;;;;20.20;13.95;;;;;;;;;;4944926;28;20047;-59
2022/01/23 12:05:25;;;;;;;20.92;13.48;;;;;;;;;;4942530;28;20484;-60
2022/01/23 12:08:15;;;;;;;21.23;13.82;;;;;;;;;;4945456;28;20039;-59
2022/01/23 12:11:04;;;;;;;19.10;12.13;;;;;;;;;;4945382;28;20156;-59
2022/01/23 12:18:48;;;;;;;20.10;13.02;;;;;;;;;;4944857;28;20078;-59
2022/01/23 12:21:30;;;;;;;18.77;12.38;;;;;;;;;;4939994;28;20087;-57
2022/01/23 12:24:05;;;;;;;16.45;12.50;;;;;;;;;;4946637;28;20803;-59
2022/01/23 12:26:31;;;;;;;20.95;13.75;;;;;;;;;;4972826;28;20715;-59
2022/01/23 12:29:11;;;;;;;18.50;13.02;;;;;;;;;;4991516;28;20379;-60
2022/01/23 12:31:37;;;;;;;19.02;12.45;;;;;;;;;;5018791;28;20052;-60
2022/01/23 12:34:04;;;;;;;16.00;13.15;;;;;;;;;;5019055;28;20041;-58
2022/01/23 12:36:32;;;;;;;18.70;13.13;;;;;;;;;;5022357;28;20033;-58
2022/01/23 12:39:17;;;;;;;17.40;11.68;;;;;;;;;;5020893;28;20034;-59
2022/01/23 12:41:51;;;;;;;17.92;10.85;;;;;;;;;;5020496;28;20029;-58
2022/01/23 12:44:23;;;;;;;16.23;9.77;;;;;;;;;;5023394;28;20049;-59
2022/01/23 12:46:57;;;;;;;18.02;9.98;;;;;;;;;;5019661;28;20041;-57
2022/01/23 12:49:34;;;;;;;12.63;8.88;;;;;;;;;;5016676;28;20038;-58
2022/01/23 12:52:07;;;;;;;13.52;8.85;;;;;;;;;;5017909;28;20030;-58
2022/01/23 12:54:46;;;;;;;12.50;9.38;;;;;;;;;;5018287;28;20117;-59
2022/01/23 12:57:18;;;;;;;15.18;9.27;;;;;;;;;;5021093;28;20045;-58
2022/01/23 12:59:52;;;;;;;13.07;8.50;;;;;;;;;;5020423;28;20112;-58
2022/01/23 13:02:20;;;;;;;11.43;7.97;;;;;;;;;;5017906;28;20060;-58
2022/01/23 13:04:49;;;;;;;16.23;9.75;;;;;;;;;;5015302;28;20040;-59
2022/01/23 13:07:27;;;;;;;14.70;10.45;;;;;;;;;;5018442;28;20045;-59
2022/01/23 13:10:02;;;;;;;17.15;10.60;;;;;;;;;;5018242;28;20026;-59
2022/01/23 13:17:50;;;;;;;9.13;6.90;;;;;;;;;;5022799;28;20480;-60
2022/01/23 13:31:52;;;;;;;13.43;8.10;;;;;;;;;;5024065;28;20026;-60
2022/01/23 13:34:25;;;;;;;14.48;8.95;;;;;;;;;;5021220;28;20034;-60
2022/01/23 13:37:07;;;;;;;14.80;10.82;;;;;;;;;;5026724;28;20041;-59
2022/01/23 13:39:38;;;;;;;20.55;13.02;;;;;;;;;;5025718;28;20057;-59
2022/01/23 13:42:16;;;;;;;25.27;14.55;;;;;;;;;;5023234;28;20091;-59
2022/01/23 13:53:28;;;;;;;24.35;14.73;;;;;;;;;;5026570;28;20041;-60
2022/01/23 13:58:39;;;;;;;21.65;14.15;;;;;;;;;;5023407;28;20417;-60
2022/01/23 14:03:53;;;;;;;27.05;16.92;;;;;;;;;;5025963;28;20048;-59
2022/01/23 14:06:20;;;;;;;23.58;14.85;;;;;;;;;;5027499;28;20487;-60
2022/01/23 14:09:04;;;;;;;17.63;12.15;;;;;;;;;;5023746;28;20030;-60
2022/01/23 14:11:30;;;;;;;25.08;12.98;;;;;;;;;;5017975;28;20823;-60
2022/01/23 14:14:11;;;;;;;21.02;11.63;;;;;;;;;;5024910;28;20111;-59
2022/01/23 14:16:37;;;;;;;16.77;10.77;;;;;;;;;;5026678;28;20051;-58
2022/01/23 14:19:23;;;;;;;21.15;11.73;;;;;;;;;;5018918;28;20032;-58
2022/01/23 14:21:52;;;;;;;13.40;9.98;;;;;;;;;;5020458;28;20041;-60
2022/01/23 14:24:36;;;;;;;13.15;9.40;;;;;;;;;;5023394;28;20042;-59
2022/01/23 14:27:10;;;;;;;18.98;10.35;;;;;;;;;;5016146;28;20092;-58
2022/01/23 14:29:53;;;;;;;13.00;9.02;;;;;;;;;;5024518;28;20076;-60
2022/01/23 14:32:48;;;;;;;16.27;7.80;;;;;;;;;;5019372;28;20034;-60
2022/01/23 14:35:15;;;;;;;11.57;6.85;;;;;;;;;;5020936;28;20037;-58
2022/01/23 14:37:43;;;;;;;15.30;7.47;;;;;;;;;;5018414;28;20045;-59
2022/01/23 14:40:21;;;;;;;8.75;7.38;;;;;;;;;;5019426;28;20025;-59
2022/01/23 14:43:09;;;;;;;8.38;6.15;;;;;;;;;;5019759;28;20044;-59
2022/01/23 14:45:41;;;;;;;10.25;6.10;;;;;;;;;;5024452;28;20485;-57
2022/01/23 14:48:07;;;;;;;;;;;;;;;;;;5024291;28;20563;-59
2022/01/23 14:50:38;;;;;;;5.32;4.38;;;;;;;;;;5019712;28;20505;-59
2022/01/23 14:53:08;;;;;;;7.57;5.28;;;;;;;;;;5024343;28;20480;-59
2022/01/23 14:55:35;;;;;;;9.63;5.45;;;;;;;;;;5019050;28;20033;-58
2022/01/23 14:58:03;;;;;;;7.45;4.75;;;;;;;;;;5021827;28;20061;-60
2022/01/23 15:00:32;;;;;;;9.55;5.20;;;;;;;;;;5023362;28;20049;-59
2022/01/23 15:03:04;;;;;;;6.75;4.95;;;;;;;;;;5021793;28;20033;-60
2022/01/23 15:05:33;;;;;;;11.25;5.40;;;;;;;;;;5019396;28;20033;-58
2022/01/23 15:07:59;;;;;;;8.48;4.70;;;;;;;;;;5021440;28;20040;-60
2022/01/23 15:10:26;;;;;;;7.63;4.82;;;;;;;;;;5020699;28;20025;-59
2022/01/23 15:12:51;;;;;;;9.82;4.88;;;;;;;;;;5022017;28;21764;-58
2022/01/23 15:15:17;;;;;;;10.60;4.97;;;;;;;;;;5022035;28;20040;-60
2022/01/23 15:17:43;;;;;;;7.45;4.07;;;;;;;;;;5018912;28;20026;-58
2022/01/23 15:20:09;;;;;;;5.15;4.57;;;;;;;;;;5020111;28;20069;-59
2022/01/23 15:22:35;;;;;;;8.32;5.72;;;;;;;;;;5018238;28;20528;-60
2022/01/23 15:25:02;;;;;;;12.38;6.72;;;;;;;;;;5021800;28;20029;-60
2022/01/23 15:27:28;;;;;;;11.68;4.68;;;;;;;;;;5018741;28;20121;-59
2022/01/23 15:29:54;;;;;;;6.90;4.10;;;;;;;;;;5023209;28;20112;-60
2022/01/23 15:32:20;;;;;;;6.35;4.00;;;;;;;;;;5021689;28;20057;-59
2022/01/23 15:34:45;;;;;;;5.15;4.00;;;;;;;;;;5020019;28;20021;-59
2022/01/23 15:37:13;;;;;;;6.90;4.38;;;;;;;;;;5021625;28;20037;-59
2022/01/23 15:39:39;;;;;;;7.68;4.53;;;;;;;;;;5021914;28;20037;-59
2022/01/23 15:42:05;;;;;;;7.88;4.80;;;;;;;;;;5024401;28;20072;-60
2022/01/23 15:44:31;;;;;;;7.55;6.35;;;;;;;;;;5020216;28;20060;-58
2022/01/23 15:46:57;;;;;;;8.27;6.65;;;;;;;;;;5018386;28;20037;-60
2022/01/23 15:49:23;;;;;;;6.85;5.18;;;;;;;;;;5017581;28;20037;-60
2022/01/23 15:51:49;;;;;;;10.73;6.07;;;;;;;;;;5019203;28;20030;-59
2022/01/23 15:54:16;;;;;;;10.27;6.95;;;;;;;;;;5020870;28;21667;-58
2022/01/23 15:56:45;;;;;;;7.40;6.53;;;;;;;;;;5023462;28;20025;-59
2022/01/23 15:59:11;;;;;;;11.98;8.43;;;;;;;;;;5011311;28;20485;-58
2022/01/23 16:01:37;;;;;;;10.32;8.32;;;;;;;;;;5024453;28;20091;-60
2022/01/23 16:04:03;;;;;;;15.73;10.35;;;;;;;;;;5018709;28;20032;-60
2022/01/23 16:06:29;;;;;;;33.47;16.77;;;;;;;;;;5021284;28;20525;-59
2022/01/23 16:08:54;;;;;;;87.80;35.70;;;;;;;;;;5020986;28;20053;-60
2022/01/23 16:11:21;;;;;;;64.40;31.17;;;;;;;;;;5019430;28;20021;-59
2022/01/23 16:13:47;;;;;;;66.60;36.13;;;;;;;;;;5020096;28;20021;-60
2022/01/23 16:16:13;;;;;;;58.03;38.42;;;;;;;;;;5020713;28;20080;-60
2022/01/23 16:18:39;;;;;;;95.75;59.70;;;;;;;;;;5026202;28;20035;-60
2022/01/23 16:21:07;;;;;;;95.30;57.13;;;;;;;;;;5020096;28;20050;-58
2022/01/23 16:23:33;;;;;;;74.05;46.28;;;;;;;;;;5015987;28;20037;-59
2022/01/23 16:25:59;;;;;;;86.60;50.83;;;;;;;;;;5020320;28;20030;-59
2022/01/23 16:28:25;;;;;;;157.85;81.03;;;;;;;;;;5018202;28;20121;-59
2022/01/23 16:30:56;;;;;;;248.50;121.78;;;;;;;;;;5013584;28;20503;-59
2022/01/23 16:33:26;;;;;;;208.48;106.60;;;;;;;;;;5026675;28;20025;-58
2022/01/23 16:35:53;;;;;;;146.07;69.32;;;;;;;;;;5015516;28;20065;-59
2022/01/23 16:38:19;;;;;;;157.07;76.30;;;;;;;;;;5024433;28;20045;-60
2022/01/23 16:40:46;;;;;;;124.57;56.67;;;;;;;;;;5023322;28;20030;-60
2022/01/23 16:43:14;;;;;;;171.73;76.53;;;;;;;;;;5021161;28;20528;-58
2022/01/23 16:45:40;;;;;;;210.63;95.53;;;;;;;;;;5018811;28;20034;-58
2022/01/23 16:48:10;;;;;;;125.05;58.08;;;;;;;;;;5021229;28;20030;-57
2022/01/23 16:50:38;;;;;;;66.68;37.08;;;;;;;;;;5023467;28;20029;-58
2022/01/23 16:53:04;;;;;;;95.72;58.97;;;;;;;;;;5016791;28;20022;-58
2022/01/23 16:55:30;;;;;;;107.90;64.13;;;;;;;;;;5026836;28;20065;-57
2022/01/23 16:57:56;;;;;;;80.40;55.83;;;;;;;;;;5025668;28;20030;-58
2022/01/23 17:00:23;;;;;;;70.00;46.92;;;;;;;;;;5023636;28;20099;-58
2022/01/23 17:02:49;;;;;;;89.22;61.40;;;;;;;;;;5020934;28;20041;-59
2022/01/23 17:05:15;;;;;;;56.03;39.97;;;;;;;;;;5026695;28;20035;-59
2022/01/23 17:07:41;;;;;;;47.22;32.63;;;;;;;;;;5019207;28;20030;-58
2022/01/23 17:10:07;;;;;;;59.95;36.55;;;;;;;;;;5020896;28;20061;-58
2022/01/23 17:12:33;;;;;;;50.65;31.88;;;;;;;;;;5020424;28;20032;-58
2022/01/23 17:14:59;;;;;;;55.13;32.70;;;;;;;;;;5025402;28;20030;-58
2022/01/23 17:17:25;;;;;;;58.33;36.92;;;;;;;;;;5029166;28;20513;-59
2022/01/23 17:19:52;;;;;;;69.13;43.00;;;;;;;;;;5021696;28;20044;-59
2022/01/23 17:22:19;;;;;;;137.02;64.47;;;;;;;;;;5026551;28;20044;-59
2022/01/23 17:24:45;;;;;;;83.25;42.53;;;;;;;;;;5024633;28;20378;-59
2022/01/23 17:27:11;;;;;;;90.43;44.42;;;;;;;;;;5021010;28;20025;-59
2022/01/23 17:29:37;;;;;;;79.97;42.60;;;;;;;;;;5026848;28;20021;-58
2022/01/23 17:32:04;;;;;;;67.15;39.78;;;;;;;;;;5019373;28;20125;-58
2022/01/23 17:34:30;;;;;;;75.55;41.35;;;;;;;;;;5025451;28;20021;-59
2022/01/23 17:36:56;;;;;;;78.97;46.80;;;;;;;;;;5028783;28;20548;-57
2022/01/23 17:39:21;;;;;;;60.00;36.88;;;;;;;;;;5017930;28;20455;-58
2022/01/23 17:41:47;;;;;;;47.60;28.02;;;;;;;;;;5025162;28;20037;-58
2022/01/23 17:44:13;;;;;;;42.08;27.63;;;;;;;;;;5024049;28;20068;-58
2022/01/23 17:46:41;;;;;;;50.50;32.55;;;;;;;;;;5021556;28;20028;-59
2022/01/23 17:49:10;;;;;;;82.90;43.20;;;;;;;;;;5024819;28;20108;-58
2022/01/23 17:51:37;;;;;;;56.10;37.80;;;;;;;;;;5017404;28;20363;-59
2022/01/23 17:54:03;;;;;;;74.40;41.45;;;;;;;;;;5025268;28;20168;-58
2022/01/23 17:56:30;;;;;;;98.03;51.88;;;;;;;;;;5024312;28;20037;-59
2022/01/23 17:58:57;;;;;;;92.63;52.10;;;;;;;;;;5024167;28;20390;-58
2022/01/23 18:01:23;;;;;;;75.18;46.50;;;;;;;;;;5024244;28;20482;-58
2022/01/23 18:03:48;;;;;;;83.70;48.58;;;;;;;;;;5020865;28;20163;-58
2022/01/23 18:06:22;;;;;;;76.53;43.13;;;;;;;;;;5022571;28;20126;-56
2022/01/23 18:08:52;;;;;;;78.03;42.38;;;;;;;;;;5021662;28;20033;-59
2022/01/23 18:11:18;;;;;;;73.07;41.75;;;;;;;;;;5021767;28;20045;-59
2022/01/23 18:13:53;;;;;;;73.20;41.15;;;;;;;;;;5021344;28;20033;-59
2022/01/23 18:16:19;;;;;;;107.45;56.08;;;;;;;;;;5018470;28;20090;-59
2022/01/23 18:18:45;;;;;;;110.30;60.78;;;;;;;;;;5022607;28;20033;-58